createdAt,value
2023-05-21T00:00:03.965Z,102080.25
2023-05-21T00:02:32.430Z,102089.97
2023-05-21T00:05:00.805Z,102078.50
2023-05-21T00:07:29.337Z,102080.25
2023-05-21T00:09:59.248Z,102071.44
2023-05-21T00:12:27.609Z,102070.59
2023-05-21T00:14:56.085Z,102070.56
2023-05-21T00:17:26.247Z,102068.81
2023-05-21T00:19:54.781Z,102076.75
2023-05-21T00:22:23.214Z,102067.03
2023-05-21T00:24:51.673Z,102069.66
2023-05-21T00:27:21.390Z,102066.19
2023-05-21T00:29:49.829Z,102066.16
2023-05-21T00:32:18.325Z,102060.88
2023-05-21T00:34:47.443Z,102059.13
2023-05-21T00:37:16.461Z,102057.34
2023-05-21T00:39:44.860Z,102058.25
2023-05-21T00:42:18.356Z,102053.81
2023-05-21T00:44:48.577Z,102057.38
2023-05-21T00:47:18.369Z,102054.72
2023-05-21T00:49:47.400Z,102051.19
2023-05-21T00:52:20.363Z,102037.97
2023-05-21T00:54:50.626Z,102042.34
2023-05-21T00:57:21.778Z,102042.34
2023-05-21T00:59:58.191Z,102037.09
2023-05-21T01:02:27.085Z,102036.22
2023-05-21T01:04:56.900Z,102033.56
2023-05-21T01:07:25.303Z,102039.75
2023-05-21T01:09:54.364Z,102037.09
2023-05-21T01:12:24.809Z,102031.78
2023-05-21T01:14:55.151Z,102029.16
2023-05-21T01:17:24.654Z,102032.72
2023-05-21T01:19:54.775Z,102031.81
2023-05-21T01:22:25.156Z,102026.53
2023-05-21T01:24:56.219Z,102027.41
2023-05-21T01:27:24.679Z,102031.81
2023-05-21T01:29:53.095Z,102020.38
2023-05-21T01:32:30.530Z,102023.00
2023-05-21T01:35:04.944Z,102019.50
2023-05-21T01:37:39.354Z,102026.56
2023-05-21T01:40:16.310Z,102032.72
2023-05-21T01:42:45.958Z,102023.06
2023-05-21T01:45:17.214Z,102016.88
2023-05-21T01:47:49.286Z,102014.25
2023-05-21T01:50:20.288Z,102013.34
2023-05-21T01:52:53.096Z,102014.25
2023-05-21T01:55:25.060Z,102012.47
2023-05-21T01:57:54.588Z,102013.34
2023-05-21T02:00:24.658Z,102016.91
2023-05-21T02:02:54.058Z,102003.69
2023-05-21T02:05:22.654Z,102005.44
2023-05-21T02:07:52.757Z,102012.50
2023-05-21T02:10:22.823Z,102008.09
2023-05-21T02:12:51.246Z,102012.50
2023-05-21T02:15:19.816Z,102005.44
2023-05-21T02:17:51.460Z,102005.47
2023-05-21T02:20:20.202Z,102008.09
2023-05-21T02:22:49.922Z,102002.78
2023-05-21T02:25:20.804Z,102006.31
2023-05-21T02:27:53.720Z,101991.34
2023-05-21T02:30:22.288Z,101997.50
2023-05-21T02:32:50.831Z,101993.09
2023-05-21T02:35:19.476Z,101988.69
2023-05-21T02:37:47.845Z,101993.97
2023-05-21T02:40:16.365Z,101986.06
2023-05-21T02:42:44.667Z,101987.81
2023-05-21T02:45:14.571Z,101984.28
2023-05-21T02:47:42.966Z,101991.34
2023-05-21T02:50:11.823Z,101999.25
2023-05-21T02:52:40.138Z,101995.75
2023-05-21T02:55:10.058Z,101991.34
2023-05-21T02:57:38.561Z,101987.78
2023-05-21T03:00:09.958Z,101979.00
2023-05-21T03:02:39.770Z,101986.06
2023-05-21T03:05:09.564Z,101979.00
2023-05-21T03:07:38.198Z,101983.41
2023-05-21T03:10:08.167Z,101979.88
2023-05-21T03:12:36.652Z,101984.28
2023-05-21T03:15:05.717Z,101993.13
2023-05-21T03:17:34.126Z,101986.06
2023-05-21T03:20:06.030Z,101989.56
2023-05-21T03:22:34.412Z,101980.75
2023-05-21T03:25:02.848Z,101983.41
2023-05-21T03:27:31.169Z,101978.13
2023-05-21T03:29:59.546Z,101979.00
2023-05-21T03:32:27.973Z,101979.91
2023-05-21T03:34:56.320Z,101985.19
2023-05-21T03:37:26.270Z,101986.03
2023-05-21T03:39:54.603Z,101984.28
2023-05-21T03:42:23.028Z,101984.25
2023-05-21T03:44:51.382Z,101986.91
2023-05-21T03:47:19.789Z,101990.44
2023-05-21T03:49:48.216Z,101991.31
2023-05-21T03:52:16.650Z,101988.66
2023-05-21T03:54:46.542Z,101992.19
2023-05-21T03:57:14.932Z,101996.59
2023-05-21T03:59:43.370Z,101989.53
2023-05-21T04:02:11.870Z,101995.72
2023-05-21T04:04:40.286Z,101994.84
2023-05-21T04:07:14.394Z,101995.72
2023-05-21T04:09:43.166Z,101995.72
2023-05-21T04:12:13.055Z,102001.00
2023-05-21T04:14:42.148Z,101994.88
2023-05-21T04:17:12.797Z,101998.41
2023-05-21T04:19:42.125Z,101994.91
2023-05-21T04:22:12.326Z,101999.28
2023-05-21T04:24:40.697Z,102007.22
2023-05-21T04:27:10.106Z,101997.53
2023-05-21T04:29:42.798Z,101996.63
2023-05-21T04:32:11.800Z,101997.53
2023-05-21T04:34:40.187Z,101992.22
2023-05-21T04:37:09.466Z,102000.19
2023-05-21T04:39:38.482Z,101992.22
2023-05-21T04:42:10.849Z,101983.41
2023-05-21T04:44:41.451Z,101992.22
2023-05-21T04:47:10.394Z,101992.22
2023-05-21T04:49:39.064Z,101986.94
2023-05-21T04:52:08.388Z,101981.69
2023-05-21T04:54:38.985Z,101975.50
2023-05-21T04:57:08.022Z,101979.88
2023-05-21T04:59:36.842Z,101979.88
2023-05-21T05:02:06.993Z,101975.50
2023-05-21T05:04:35.428Z,101983.44
2023-05-21T05:07:03.862Z,101985.19
2023-05-21T05:09:32.312Z,101976.38
2023-05-21T05:12:00.839Z,101979.03
2023-05-21T05:14:29.271Z,101970.22
2023-05-21T05:17:00.972Z,101971.97
2023-05-21T05:19:31.967Z,101970.22
2023-05-21T05:22:00.492Z,101966.66
2023-05-21T05:24:28.911Z,101963.16
2023-05-21T05:26:57.255Z,101970.19
2023-05-21T05:29:25.846Z,101972.81
2023-05-21T05:31:54.174Z,101969.28
2023-05-21T05:34:22.559Z,101972.78
2023-05-21T05:36:52.254Z,101974.56
2023-05-21T05:39:20.785Z,101974.53
2023-05-21T05:41:49.206Z,101976.28
2023-05-21T05:44:17.689Z,101973.63
2023-05-21T05:46:46.275Z,101970.97
2023-05-21T05:49:14.981Z,101961.25
2023-05-21T05:51:43.301Z,101959.44
2023-05-21T05:54:13.223Z,101960.31
2023-05-21T05:56:41.663Z,101964.69
2023-05-21T05:59:10.234Z,101962.03
2023-05-21T06:01:38.721Z,101959.41
2023-05-21T06:04:07.213Z,101962.03
2023-05-21T06:06:36.823Z,101960.25
2023-05-21T06:09:05.379Z,101962.00
2023-05-21T06:11:35.409Z,101963.75
2023-05-21T06:14:03.805Z,101962.81
2023-05-21T06:16:32.363Z,101970.69
2023-05-21T06:19:01.229Z,101974.22
2023-05-21T06:21:29.574Z,101968.03
2023-05-21T06:23:58.001Z,101969.78
2023-05-21T06:26:26.745Z,101962.69
2023-05-21T06:28:56.667Z,101962.69
2023-05-21T06:31:25.123Z,101959.13
2023-05-21T06:33:53.773Z,101968.84
2023-05-21T06:36:22.672Z,101963.47
2023-05-21T06:38:51.058Z,101956.34
2023-05-21T06:41:19.562Z,101961.66
2023-05-21T06:43:47.948Z,101952.81
2023-05-21T06:46:17.676Z,101955.44
2023-05-21T06:48:46.842Z,101953.66
2023-05-21T06:51:15.420Z,101948.38
2023-05-21T06:53:43.876Z,101948.38
2023-05-21T06:56:13.164Z,101937.72
2023-05-21T06:58:41.605Z,101943.88
2023-05-21T07:01:10.024Z,101942.94
2023-05-21T07:03:39.828Z,101944.66
2023-05-21T07:06:08.673Z,101931.34
2023-05-21T07:08:37.210Z,101939.25
2023-05-21T07:11:05.613Z,101932.94
2023-05-21T07:13:33.997Z,101926.66
2023-05-21T07:16:02.456Z,101928.38
2023-05-21T07:18:30.791Z,101925.69
2023-05-21T07:21:01.161Z,101929.16
2023-05-21T07:23:29.659Z,101934.31
2023-05-21T07:25:58.062Z,101933.38
2023-05-21T07:28:26.435Z,101930.59
2023-05-21T07:30:55.054Z,101934.97
2023-05-21T07:33:23.699Z,101927.75
2023-05-21T07:35:52.453Z,101934.72
2023-05-21T07:38:22.464Z,101926.69
2023-05-21T07:40:50.878Z,101923.88
2023-05-21T07:43:19.580Z,101926.41
2023-05-21T07:45:47.914Z,101914.78
2023-05-21T07:48:16.340Z,101919.94
2023-05-21T07:50:45.055Z,101926.84
2023-05-21T07:53:13.442Z,101924.94
2023-05-21T07:55:47.839Z,101914.16
2023-05-21T07:58:17.702Z,101910.41
2023-05-21T08:00:48.777Z,101912.91
2023-05-21T08:03:17.912Z,101911.81
2023-05-21T08:05:49.150Z,101913.44
2023-05-21T08:08:17.883Z,101911.44
2023-05-21T08:10:48.002Z,101906.88
2023-05-21T08:13:17.320Z,101908.41
2023-05-21T08:15:45.935Z,101903.63
2023-05-21T08:18:14.304Z,101907.81
2023-05-21T08:20:42.727Z,101906.75
2023-05-21T08:23:11.184Z,101905.56
2023-05-21T08:25:39.760Z,101908.94
2023-05-21T08:28:09.547Z,101907.13
2023-05-21T08:30:38.027Z,101907.97
2023-05-21T08:33:06.542Z,101905.94
2023-05-21T08:35:35.146Z,101911.03
2023-05-21T08:38:03.662Z,101914.22
2023-05-21T08:40:32.022Z,101912.88
2023-05-21T08:43:00.516Z,101909.19
2023-05-21T08:45:38.385Z,101921.66
2023-05-21T08:48:08.160Z,101911.94
2023-05-21T08:50:36.524Z,101906.59
2023-05-21T08:53:12.711Z,101918.16
2023-05-21T08:55:55.782Z,101910.91
2023-05-21T08:58:24.614Z,101917.06
2023-05-21T09:00:56.078Z,101910.78
2023-05-21T09:03:25.532Z,101917.88
2023-05-21T09:05:55.159Z,101921.28
2023-05-21T09:08:33.036Z,101906.97
2023-05-21T09:11:03.350Z,101895.34
2023-05-21T09:13:33.510Z,101894.47
2023-05-21T09:16:03.286Z,101896.94
2023-05-21T09:18:31.814Z,101898.59
2023-05-21T09:21:01.005Z,101895.84
2023-05-21T09:23:30.435Z,101898.28
2023-05-21T09:25:59.773Z,101891.78
2023-05-21T09:28:28.133Z,101902.28
2023-05-21T09:30:56.666Z,101892.31
2023-05-21T09:33:30.852Z,101884.69
2023-05-21T09:35:59.383Z,101892.97
2023-05-21T09:38:27.816Z,101892.66
2023-05-21T09:40:57.748Z,101889.66
2023-05-21T09:43:27.141Z,101892.94
2023-05-21T09:45:58.446Z,101885.56
2023-05-21T09:48:39.660Z,101886.84
2023-05-21T09:51:16.738Z,101880.38
2023-05-21T09:53:57.943Z,101889.78
2023-05-21T09:56:29.583Z,101887.25
2023-05-21T09:59:00.529Z,101895.25
2023-05-21T10:01:29.697Z,101894.97
2023-05-21T10:04:01.843Z,101885.63
2023-05-21T10:06:32.343Z,101882.81
2023-05-21T10:09:05.896Z,101874.84
2023-05-21T10:11:36.582Z,101873.94
2023-05-21T10:14:08.687Z,101868.69
2023-05-21T10:16:38.571Z,101867.00
2023-05-21T10:19:11.235Z,101866.94
2023-05-21T10:21:41.228Z,101863.00
2023-05-21T10:24:10.880Z,101860.00
2023-05-21T10:26:39.826Z,101856.22
2023-05-21T10:29:10.391Z,101860.09
2023-05-21T10:31:40.833Z,101856.34
2023-05-21T10:34:12.808Z,101851.50
2023-05-21T10:36:42.614Z,101852.56
2023-05-21T10:39:13.130Z,101851.41
2023-05-21T10:41:54.440Z,101847.75
2023-05-21T10:44:36.289Z,101843.19
2023-05-21T10:47:40.168Z,101845.63
2023-05-21T10:50:32.784Z,101831.91
2023-05-21T10:53:15.001Z,101831.69
2023-05-21T10:56:02.976Z,101828.50
2023-05-21T10:59:01.066Z,101823.41
2023-05-21T11:01:35.796Z,101822.66
2023-05-21T11:04:05.777Z,101818.84
2023-05-21T11:06:35.912Z,101816.97
2023-05-21T11:09:13.990Z,101813.91
2023-05-21T11:11:45.020Z,101815.88
2023-05-21T11:14:35.618Z,101812.13
2023-05-21T11:17:06.372Z,101805.78
2023-05-21T11:19:38.504Z,101798.63
2023-05-21T11:22:10.695Z,101794.34
2023-05-21T11:24:41.356Z,101799.75
2023-05-21T11:27:09.959Z,101792.50
2023-05-21T11:29:41.600Z,101799.03
2023-05-21T11:32:11.553Z,101794.13
2023-05-21T11:34:42.534Z,101790.19
2023-05-21T11:37:34.523Z,101786.03
2023-05-21T11:40:35.512Z,101798.91
2023-05-21T11:43:04.395Z,101792.91
2023-05-21T11:45:34.325Z,101799.56
2023-05-21T11:48:03.037Z,101801.22
2023-05-21T11:50:33.767Z,101797.38
2023-05-21T11:53:04.248Z,101789.59
2023-05-21T11:55:34.672Z,101795.06
2023-05-21T11:58:04.049Z,101790.31
2023-05-21T12:00:34.246Z,101787.19
2023-05-21T12:03:02.879Z,101782.06
2023-05-21T12:05:31.340Z,101775.94
2023-05-21T12:07:59.798Z,101774.34
2023-05-21T12:10:29.610Z,101772.34
2023-05-21T12:12:58.009Z,101775.38
2023-05-21T12:15:28.225Z,101769.66
2023-05-21T12:17:57.941Z,101770.50
2023-05-21T12:20:29.145Z,101771.50
2023-05-21T12:23:00.585Z,101765.72
2023-05-21T12:25:32.128Z,101769.38
2023-05-21T12:28:01.454Z,101773.91
2023-05-21T12:30:30.388Z,101773.88
2023-05-21T12:33:02.343Z,101765.13
2023-05-21T12:35:32.827Z,101766.81
2023-05-21T12:38:04.068Z,101768.69
2023-05-21T12:40:41.049Z,101769.56
2023-05-21T12:43:09.973Z,101771.13
2023-05-21T12:45:40.913Z,101777.75
2023-05-21T12:48:09.585Z,101771.84
2023-05-21T12:50:41.822Z,101782.09
2023-05-21T12:53:12.416Z,101766.97
2023-05-21T12:55:42.321Z,101772.59
2023-05-21T12:58:15.461Z,101769.88
2023-05-21T13:00:44.284Z,101765.81
2023-05-21T13:03:14.204Z,101765.06
2023-05-21T13:05:42.572Z,101772.75
2023-05-21T13:08:13.870Z,101772.50
2023-05-21T13:10:43.873Z,101770.00
2023-05-21T13:13:12.165Z,101770.50
2023-05-21T13:15:40.571Z,101765.09
2023-05-21T13:18:09.307Z,101760.69
2023-05-21T13:20:38.321Z,101762.84
2023-05-21T13:23:09.037Z,101751.66
2023-05-21T13:25:38.998Z,101743.06
2023-05-21T13:28:10.578Z,101742.78
2023-05-21T13:30:39.267Z,101733.56
2023-05-21T13:33:08.389Z,101735.94
2023-05-21T13:35:36.901Z,101737.06
2023-05-21T13:38:05.282Z,101725.94
2023-05-21T13:40:35.454Z,101728.31
2023-05-21T13:43:05.456Z,101719.16
2023-05-21T13:45:35.364Z,101718.97
2023-05-21T13:48:03.908Z,101722.25
2023-05-21T13:50:32.356Z,101713.81
2023-05-21T13:53:00.876Z,101714.84
2023-05-21T13:55:29.335Z,101709.84
2023-05-21T13:57:57.709Z,101705.13
2023-05-21T14:00:26.115Z,101713.09
2023-05-21T14:02:55.974Z,101711.22
2023-05-21T14:05:24.545Z,101700.47
2023-05-21T14:07:52.909Z,101708.16
2023-05-21T14:10:21.490Z,101701.03
2023-05-21T14:12:49.852Z,101700.09
2023-05-21T14:15:18.506Z,101702.56
2023-05-21T14:17:47.005Z,101701.97
2023-05-21T14:20:16.820Z,101695.53
2023-05-21T14:22:45.240Z,101697.53
2023-05-21T14:25:13.567Z,101696.06
2023-05-21T14:27:42.095Z,101704.06
2023-05-21T14:30:11.810Z,101696.72
2023-05-21T14:32:40.204Z,101699.66
2023-05-21T14:35:09.294Z,101698.56
2023-05-21T14:37:39.206Z,101691.22
2023-05-21T14:40:09.643Z,101687.44
2023-05-21T14:42:38.195Z,101680.41
2023-05-21T14:45:18.738Z,101676.22
2023-05-21T14:47:48.883Z,101680.25
2023-05-21T14:50:18.960Z,101679.22
2023-05-21T14:52:48.760Z,101680.38
2023-05-21T14:55:18.590Z,101674.84
2023-05-21T14:57:47.235Z,101672.47
2023-05-21T15:00:16.456Z,101680.00
2023-05-21T15:02:44.967Z,101686.03
2023-05-21T15:05:13.489Z,101685.47
2023-05-21T15:07:41.815Z,101675.31
2023-05-21T15:10:12.549Z,101679.94
2023-05-21T15:12:42.075Z,101677.94
2023-05-21T15:15:12.262Z,101681.31
2023-05-21T15:17:44.037Z,101674.63
2023-05-21T15:20:12.918Z,101677.34
2023-05-21T15:22:41.355Z,101671.91
2023-05-21T15:25:11.800Z,101669.03
2023-05-21T15:27:40.076Z,101686.31
2023-05-21T15:30:09.637Z,101677.59
2023-05-21T15:32:38.159Z,101675.41
2023-05-21T15:35:07.722Z,101664.53
2023-05-21T15:37:36.218Z,101665.59
2023-05-21T15:40:05.405Z,101664.09
2023-05-21T15:42:35.070Z,101665.84
2023-05-21T15:45:03.469Z,101665.47
2023-05-21T15:47:31.831Z,101659.19
2023-05-21T15:50:00.588Z,101657.97
2023-05-21T15:52:29.229Z,101666.00
2023-05-21T15:54:57.885Z,101658.56
2023-05-21T15:57:26.307Z,101656.25
2023-05-21T15:59:57.340Z,101660.28
2023-05-21T16:02:25.846Z,101655.69
2023-05-21T16:04:54.198Z,101651.06
2023-05-21T16:07:24.509Z,101659.69
2023-05-21T16:09:53.073Z,101656.31
2023-05-21T16:12:21.444Z,101656.19
2023-05-21T16:14:50.900Z,101643.19
2023-05-21T16:17:20.857Z,101645.00
2023-05-21T16:19:49.258Z,101651.69
2023-05-21T16:22:17.577Z,101646.53
2023-05-21T16:24:45.992Z,101650.22
2023-05-21T16:27:14.526Z,101650.13
2023-05-21T16:29:42.973Z,101644.53
2023-05-21T16:32:13.121Z,101651.34
2023-05-21T16:34:42.980Z,101647.50
2023-05-21T16:37:11.447Z,101649.53
2023-05-21T16:39:40.044Z,101646.53
2023-05-21T16:42:08.594Z,101636.97
2023-05-21T16:44:37.945Z,101640.72
2023-05-21T16:47:06.940Z,101634.44
2023-05-21T16:49:35.559Z,101630.72
2023-05-21T16:52:05.646Z,101627.31
2023-05-21T16:54:35.160Z,101622.44
2023-05-21T16:57:03.504Z,101619.16
2023-05-21T16:59:31.806Z,101617.38
2023-05-21T17:02:00.229Z,101618.66
2023-05-21T17:04:29.155Z,101613.13
2023-05-21T17:06:57.770Z,101609.84
2023-05-21T17:09:27.454Z,101608.91
2023-05-21T17:11:56.097Z,101604.09
2023-05-21T17:14:33.703Z,101601.22
2023-05-21T17:17:03.106Z,101601.41
2023-05-21T17:19:33.632Z,101602.44
2023-05-21T17:22:02.138Z,101606.38
2023-05-21T17:24:31.964Z,101598.09
2023-05-21T17:27:02.807Z,101606.88
2023-05-21T17:29:31.246Z,101605.72
2023-05-21T17:32:00.059Z,101603.63
2023-05-21T17:34:30.378Z,101608.47
2023-05-21T17:37:00.139Z,101596.03
2023-05-21T17:39:28.522Z,101597.81
2023-05-21T17:42:01.504Z,101602.91
2023-05-21T17:44:29.960Z,101604.41
2023-05-21T17:46:58.321Z,101604.09
2023-05-21T17:49:26.728Z,101608.66
2023-05-21T17:51:55.236Z,101603.25
2023-05-21T17:54:23.796Z,101600.69
2023-05-21T17:56:52.220Z,101607.91
2023-05-21T17:59:22.405Z,101607.56
2023-05-21T18:01:50.850Z,101608.00
2023-05-21T18:04:19.650Z,101611.94
2023-05-21T18:06:48.057Z,101605.25
2023-05-21T18:09:16.607Z,101608.53
2023-05-21T18:11:45.435Z,101608.00
2023-05-21T18:14:13.924Z,101610.31
2023-05-21T18:16:43.832Z,101614.25
2023-05-21T18:19:12.350Z,101616.38
2023-05-21T18:21:41.207Z,101615.22
2023-05-21T18:24:09.968Z,101614.00
2023-05-21T18:26:38.332Z,101616.09
2023-05-21T18:29:07.118Z,101624.44
2023-05-21T18:31:35.751Z,101620.31
2023-05-21T18:34:05.752Z,101620.78
2023-05-21T18:36:38.818Z,101621.22
2023-05-21T18:39:08.220Z,101627.06
2023-05-21T18:41:37.420Z,101619.44
2023-05-21T18:44:06.484Z,101618.91
2023-05-21T18:46:34.973Z,101621.81
2023-05-21T18:49:05.065Z,101620.38
2023-05-21T18:51:33.493Z,101617.94
2023-05-21T18:54:01.932Z,101616.41
2023-05-21T18:56:30.272Z,101616.63
2023-05-21T18:58:58.724Z,101620.47
2023-05-21T19:01:28.273Z,101616.34
2023-05-21T19:03:56.633Z,101620.25
2023-05-21T19:06:27.822Z,101617.84
2023-05-21T19:08:56.367Z,101608.34
2023-05-21T19:11:27.608Z,101609.44
2023-05-21T19:13:56.003Z,101615.91
2023-05-21T19:16:24.562Z,101618.78
2023-05-21T19:18:53.585Z,101612.66
2023-05-21T19:21:22.375Z,101604.84
2023-05-21T19:23:53.596Z,101613.00
2023-05-21T19:26:23.513Z,101606.88
2023-05-21T19:28:53.913Z,101615.16
2023-05-21T19:31:23.589Z,101616.16
2023-05-21T19:33:52.270Z,101619.84
2023-05-21T19:36:22.039Z,101614.69
2023-05-21T19:38:52.555Z,101621.91
2023-05-21T19:41:22.730Z,101622.16
2023-05-21T19:43:52.226Z,101615.19
2023-05-21T19:46:20.994Z,101621.69
2023-05-21T19:48:50.027Z,101614.69
2023-05-21T19:51:19.016Z,101621.06
2023-05-21T19:53:47.587Z,101612.34
2023-05-21T19:56:17.555Z,101616.03
2023-05-21T19:58:48.069Z,101618.00
2023-05-21T20:01:17.864Z,101614.66
2023-05-21T20:03:46.626Z,101613.06
2023-05-21T20:06:19.072Z,101608.81
2023-05-21T20:08:47.866Z,101609.94
2023-05-21T20:11:18.084Z,101607.44
2023-05-21T20:13:50.141Z,101607.66
2023-05-21T20:16:18.943Z,101604.31
2023-05-21T20:18:47.999Z,101607.19
2023-05-21T20:21:20.380Z,101609.22
2023-05-21T20:23:49.470Z,101607.69
2023-05-21T20:26:20.872Z,101612.31
2023-05-21T20:28:49.558Z,101603.66
2023-05-21T20:31:18.365Z,101608.25
2023-05-21T20:33:46.950Z,101595.97
2023-05-21T20:36:17.771Z,101596.22
2023-05-21T20:38:47.265Z,101597.34
2023-05-21T20:41:15.835Z,101590.34
2023-05-21T20:43:46.470Z,101591.41
2023-05-21T20:46:17.455Z,101593.31
2023-05-21T20:48:46.094Z,101594.38
2023-05-21T20:51:14.601Z,101594.53
2023-05-21T20:53:43.295Z,101582.31
2023-05-21T20:56:14.925Z,101583.31
2023-05-21T20:58:44.963Z,101581.59
2023-05-21T21:01:14.642Z,101580.81
2023-05-21T21:03:45.828Z,101592.47
2023-05-21T21:06:14.458Z,101582.78
2023-05-21T21:08:46.183Z,101590.00
2023-05-21T21:11:14.723Z,101577.59
2023-05-21T21:13:44.871Z,101583.91
2023-05-21T21:16:13.223Z,101590.19
2023-05-21T21:18:41.605Z,101587.56
2023-05-21T21:21:10.135Z,101584.88
2023-05-21T21:23:39.072Z,101588.53
2023-05-21T21:26:08.086Z,101583.25
2023-05-21T21:28:36.825Z,101578.81
2023-05-21T21:31:07.326Z,101582.41
2023-05-21T21:33:36.129Z,101578.97
2023-05-21T21:36:05.018Z,101578.13
2023-05-21T21:38:33.486Z,101580.88
2023-05-21T21:41:02.006Z,101574.72
2023-05-21T21:43:30.460Z,101581.91
2023-05-21T21:45:59.049Z,101578.47
2023-05-21T21:48:28.892Z,101583.88
2023-05-21T21:50:58.488Z,101584.88
2023-05-21T21:53:26.929Z,101579.69
2023-05-21T21:55:55.931Z,101578.03
2023-05-21T21:58:24.778Z,101573.72
2023-05-21T22:00:53.717Z,101591.50
2023-05-21T22:03:22.269Z,101588.06
2023-05-21T22:05:52.318Z,101585.53
2023-05-21T22:08:20.897Z,101589.16
2023-05-21T22:10:49.344Z,101588.41
2023-05-21T22:13:18.125Z,101586.69
2023-05-21T22:15:46.522Z,101581.47
2023-05-21T22:18:28.268Z,101579.81
2023-05-21T22:21:10.024Z,101589.69
2023-05-21T22:23:39.803Z,101593.31
2023-05-21T22:26:08.443Z,101577.47
2023-05-21T22:28:37.224Z,101584.59
2023-05-21T22:31:09.006Z,101577.59
2023-05-21T22:33:38.106Z,101577.66
2023-05-21T22:36:09.276Z,101583.03
2023-05-21T22:38:38.373Z,101572.50
2023-05-21T22:41:08.528Z,101577.00
2023-05-21T22:43:38.315Z,101569.03
2023-05-21T22:46:07.193Z,101577.91
2023-05-21T22:48:37.347Z,101573.53
2023-05-21T22:51:07.861Z,101570.03
2023-05-21T22:53:36.993Z,101566.53
2023-05-21T22:56:06.377Z,101562.94
2023-05-21T22:58:35.236Z,101562.94
2023-05-21T23:01:03.753Z,101561.19
2023-05-21T23:03:32.153Z,101556.75
2023-05-21T23:06:00.615Z,101561.19
2023-05-21T23:08:30.366Z,101559.41
2023-05-21T23:10:58.714Z,101564.75
2023-05-21T23:13:27.130Z,101555.03
2023-05-21T23:15:58.885Z,101556.78
2023-05-21T23:18:27.422Z,101555.91
2023-05-21T23:20:55.944Z,101554.19
2023-05-21T23:23:24.552Z,101553.28
2023-05-21T23:25:57.589Z,101559.50
2023-05-21T23:28:26.597Z,101554.22
2023-05-21T23:30:55.012Z,101554.28
2023-05-21T23:33:23.498Z,101566.66
2023-05-21T23:35:51.972Z,101557.84
2023-05-21T23:38:20.500Z,101564.94
2023-05-21T23:40:49.135Z,101558.75
2023-05-21T23:43:19.316Z,101558.78
2023-05-21T23:45:47.963Z,101560.50
2023-05-21T23:48:16.372Z,101564.06
2023-05-21T23:50:44.792Z,101570.22
2023-05-21T23:53:13.212Z,101565.75
2023-05-21T23:55:42.093Z,101596.72
2023-05-21T23:58:10.518Z,101568.22
